Time;durP1;ratioP1;P1;durP2;ratioP2;P2;SDS_P1;SDS_P2;PMS_P1;PMS_P2;Temp;Humidity;BMP_temperature;BMP_pressure;BME280_temperature;BME280_humidity;BME280_pressure;Samples;Min_cycle;Max_cycle;Signal;HPM_P1;HPM_P2
2023/07/08 00:01:14;;;;;;;11.80;4.18;;;17.30;97.40;;;;;;4989113;28;20057;-73
2023/07/08 00:03:41;;;;;;;9.82;3.95;;;17.30;97.70;;;;;;4949092;28;209316;-70
2023/07/08 00:06:13;;;;;;;11.00;4.25;;;17.30;97.60;;;;;;4993591;28;20053;-70
2023/07/08 00:08:39;;;;;;;12.27;4.10;;;17.30;97.80;;;;;;4956627;28;237926;-69
2023/07/08 00:11:11;;;;;;;11.45;3.85;;;17.20;98.00;;;;;;4988125;28;20077;-69
2023/07/08 00:13:37;;;;;;;10.35;3.80;;;17.20;98.30;;;;;;4950099;28;210126;-72
2023/07/08 00:16:04;;;;;;;9.70;3.80;;;17.20;98.30;;;;;;4988645;28;20050;-69
2023/07/08 00:18:30;;;;;;;10.00;3.50;;;17.20;98.30;;;;;;4944283;28;210337;-71
2023/07/08 00:20:58;;;;;;;11.15;3.97;;;17.10;98.50;;;;;;4983601;28;20042;-71
2023/07/08 00:23:24;;;;;;;13.75;4.10;;;17.10;98.60;;;;;;4935713;28;214503;-73
2023/07/08 00:25:51;;;;;;;10.55;4.10;;;17.10;98.80;;;;;;4966517;28;20081;-70
2023/07/08 00:28:19;;;;;;;11.27;4.10;;;17.00;98.80;;;;;;4951560;28;181228;-70
2023/07/08 00:30:46;;;;;;;9.38;3.88;;;17.00;99.00;;;;;;4992952;28;20057;-70
2023/07/08 00:33:12;;;;;;;9.00;4.00;;;17.00;99.10;;;;;;4919716;28;214377;-71
2023/07/08 00:35:40;;;;;;;10.68;4.15;;;17.00;99.30;;;;;;4970412;28;20058;-71
2023/07/08 00:38:26;;;;;;;10.88;4.03;;;16.90;99.40;;;;;;4933992;28;209899;-71
2023/07/08 00:41:06;;;;;;;12.52;4.22;;;16.90;99.60;;;;;;4988000;28;20062;-70
2023/07/08 00:43:59;;;;;;;10.57;4.10;;;16.90;99.50;;;;;;4949139;28;216580;-70
2023/07/08 00:46:27;;;;;;;9.63;4.35;;;16.80;99.70;;;;;;4983437;28;20130;-72
2023/07/08 00:49:06;;;;;;;13.77;4.50;;;16.80;99.90;;;;;;4956858;28;210570;-71
2023/07/08 00:51:33;;;;;;;10.07;4.20;;;16.80;99.90;;;;;;4980790;28;20523;-71
2023/07/08 00:54:00;;;;;;;10.43;4.05;;;16.80;99.90;;;;;;4922121;28;212221;-71
2023/07/08 00:56:31;;;;;;;12.00;4.47;;;16.70;99.90;;;;;;4976765;28;20053;-70
2023/07/08 00:58:57;;;;;;;9.60;4.10;;;16.70;99.90;;;;;;4929146;28;224314;-70
2023/07/08 01:01:24;;;;;;;13.23;4.25;;;16.70;99.90;;;;;;4980669;28;20053;-70
2023/07/08 01:03:56;;;;;;;9.68;4.00;;;16.70;99.90;;;;;;4933172;28;215625;-70
2023/07/08 01:06:31;;;;;;;10.00;4.50;;;16.70;99.90;;;;;;4980762;28;20058;-70
2023/07/08 01:09:04;;;;;;;10.88;4.57;;;16.60;99.90;;;;;;4928805;28;210311;-71
2023/07/08 01:11:32;;;;;;;10.10;3.85;;;16.60;99.90;;;;;;4982274;28;20069;-70
2023/07/08 01:14:01;;;;;;;10.80;4.43;;;16.60;99.90;;;;;;4934186;28;212790;-70
2023/07/08 01:16:27;;;;;;;10.10;4.00;;;16.60;99.90;;;;;;4984658;28;20447;-72
2023/07/08 01:18:54;;;;;;;9.65;4.15;;;16.60;99.90;;;;;;4954657;28;211020;-72
2023/07/08 01:21:46;;;;;;;11.05;4.30;;;16.60;99.90;;;;;;4983170;28;20046;-69
2023/07/08 01:24:12;;;;;;;11.52;4.15;;;16.50;99.90;;;;;;4938798;28;211074;-71
2023/07/08 01:26:43;;;;;;;9.98;4.20;;;16.50;99.90;;;;;;4983295;28;20042;-70
2023/07/08 01:29:10;;;;;;;;;;;16.50;99.90;;;;;;4976210;28;207514;-73
2023/07/08 01:31:37;;;;;;;13.00;4.40;;;16.40;99.90;;;;;;5003770;28;19925;-68
2023/07/08 01:34:03;;;;;;;12.45;4.53;;;16.40;99.90;;;;;;4942874;28;213143;-71
2023/07/08 01:36:36;;;;;;;13.48;4.40;;;16.40;99.90;;;;;;4980239;28;20492;-70
2023/07/08 01:39:03;;;;;;;11.77;4.75;;;16.40;99.90;;;;;;4929570;28;207172;-70
2023/07/08 01:41:29;;;;;;;11.30;4.38;;;16.40;99.90;;;;;;4975946;28;20072;-70
2023/07/08 01:43:55;;;;;;;12.35;4.95;;;16.40;99.90;;;;;;4943171;28;221588;-70
2023/07/08 01:46:26;;;;;;;10.27;4.30;;;16.40;99.90;;;;;;4980420;28;20050;-69
2023/07/08 01:48:57;;;;;;;9.48;4.22;;;16.30;99.90;;;;;;4938438;28;224977;-70
2023/07/08 01:51:25;;;;;;;11.43;4.65;;;16.30;99.90;;;;;;4981608;28;20051;-70
2023/07/08 01:53:52;;;;;;;11.07;4.70;;;16.30;99.90;;;;;;4938634;28;210886;-70
2023/07/08 01:56:18;;;;;;;10.18;4.50;;;16.30;99.90;;;;;;5002457;28;20054;-70
2023/07/08 01:58:44;;;;;;;14.00;4.45;;;16.30;99.90;;;;;;4959925;28;212717;-69
2023/07/08 02:01:10;;;;;;;10.73;4.63;;;16.30;99.90;;;;;;5003857;28;20116;-70
2023/07/08 02:03:36;;;;;;;11.95;4.40;;;16.20;99.90;;;;;;4958319;28;169104;-72
2023/07/08 02:06:03;;;;;;;9.32;4.35;;;16.20;99.90;;;;;;5003896;28;20058;-71
2023/07/08 02:08:29;;;;;;;10.65;4.80;;;16.30;99.90;;;;;;4960235;28;213867;-70
2023/07/08 02:10:57;;;;;;;10.38;4.20;;;16.20;99.90;;;;;;5009600;28;20057;-70
2023/07/08 02:13:25;;;;;;;13.63;4.85;;;16.20;99.90;;;;;;4951286;28;213939;-70
2023/07/08 02:15:51;;;;;;;11.70;4.55;;;16.20;99.90;;;;;;5005253;28;20062;-71
2023/07/08 02:18:20;;;;;;;14.77;4.63;;;16.20;99.90;;;;;;4969550;28;210366;-70
2023/07/08 02:20:47;;;;;;;12.32;5.05;;;16.20;99.90;;;;;;5018706;28;20061;-69
2023/07/08 02:23:14;;;;;;;11.32;4.65;;;16.10;99.90;;;;;;4957665;28;211611;-72
2023/07/08 02:25:40;;;;;;;12.00;4.75;;;16.10;99.90;;;;;;4997972;28;20042;-70
2023/07/08 02:28:06;;;;;;;11.05;4.60;;;16.10;99.90;;;;;;4928730;28;207879;-71
2023/07/08 02:30:32;;;;;;;11.20;4.80;;;16.00;99.90;;;;;;4972349;28;20411;-73
2023/07/08 02:32:59;;;;;;;11.25;4.72;;;16.00;99.90;;;;;;4935951;28;210139;-70
2023/07/08 02:35:27;;;;;;;10.30;4.68;;;16.00;99.90;;;;;;4984742;28;20046;-70
2023/07/08 02:37:54;;;;;;;11.35;4.68;;;16.00;99.90;;;;;;4943162;28;212182;-71
2023/07/08 02:40:21;;;;;;;11.95;5.45;;;15.90;99.90;;;;;;5015741;28;20058;-70
2023/07/08 02:42:48;;;;;;;13.32;5.32;;;15.90;99.90;;;;;;4958108;28;211644;-73
2023/07/08 02:45:14;;;;;;;11.32;4.78;;;15.90;99.90;;;;;;5000204;28;20054;-70
2023/07/08 02:47:40;;;;;;;10.70;5.20;;;15.90;99.90;;;;;;4944269;28;214338;-70
2023/07/08 02:50:08;;;;;;;12.10;5.18;;;15.80;99.90;;;;;;5006377;28;20062;-73
2023/07/08 02:52:35;;;;;;;12.00;5.63;;;15.80;99.90;;;;;;4933212;28;209934;-70
2023/07/08 02:55:01;;;;;;;14.02;5.38;;;15.80;99.90;;;;;;5003208;28;20511;-71
2023/07/08 02:57:27;;;;;;;13.80;5.20;;;15.70;99.90;;;;;;4921053;28;211217;-70
2023/07/08 02:59:53;;;;;;;11.07;5.45;;;15.70;99.90;;;;;;5025731;28;20062;-70
2023/07/08 03:02:21;;;;;;;12.85;5.60;;;15.70;99.90;;;;;;4948066;28;210566;-69
2023/07/08 03:04:49;;;;;;;12.75;5.28;;;15.70;99.90;;;;;;5014916;28;20057;-70
2023/07/08 03:07:16;;;;;;;11.25;5.55;;;15.70;99.90;;;;;;4956286;28;211657;-70
2023/07/08 03:09:43;;;;;;;11.77;5.32;;;15.70;99.90;;;;;;5009776;28;20057;-70
2023/07/08 03:12:11;;;;;;;12.43;5.22;;;15.60;99.90;;;;;;4953092;28;219663;-70
2023/07/08 03:14:38;;;;;;;14.25;5.55;;;15.60;99.90;;;;;;4989840;28;20054;-70
2023/07/08 03:17:04;;;;;;;11.27;5.70;;;15.60;99.90;;;;;;4940859;28;212130;-70
2023/07/08 03:19:31;;;;;;;11.23;5.85;;;15.60;99.90;;;;;;4993278;28;20050;-70
2023/07/08 03:21:58;;;;;;;12.65;5.32;;;15.50;99.90;;;;;;4959972;28;212893;-69
2023/07/08 03:24:24;;;;;;;12.43;5.60;;;15.50;99.90;;;;;;4966223;28;263116;-70
2023/07/08 03:26:53;;;;;;;14.10;5.53;;;15.50;99.90;;;;;;4982959;28;20042;-69
2023/07/08 03:29:21;;;;;;;12.05;5.57;;;15.50;99.90;;;;;;4959120;28;111177;-69
2023/07/08 03:31:47;;;;;;;11.98;5.45;;;15.50;99.90;;;;;;5006695;28;20514;-70
2023/07/08 03:34:15;;;;;;;12.00;6.03;;;15.50;99.90;;;;;;4980518;28;210945;-69
2023/07/08 03:36:50;;;;;;;13.80;5.78;;;15.50;99.90;;;;;;4997850;28;20062;-69
2023/07/08 03:39:18;;;;;;;13.73;5.60;;;15.50;99.90;;;;;;4979104;28;212150;-68
2023/07/08 03:41:45;;;;;;;14.40;5.82;;;15.50;99.90;;;;;;5004974;28;20061;-70
2023/07/08 03:44:12;;;;;;;14.55;5.70;;;15.50;99.90;;;;;;4960138;28;209191;-70
2023/07/08 03:46:39;;;;;;;13.90;5.95;;;15.50;99.90;;;;;;5004578;28;20057;-70
2023/07/08 03:49:06;;;;;;;11.15;5.78;;;15.50;99.90;;;;;;4962020;28;213564;-72
2023/07/08 03:51:35;;;;;;;12.80;5.72;;;15.50;99.90;;;;;;5000863;28;20053;-69
2023/07/08 03:54:02;;;;;;;10.25;5.55;;;15.50;99.90;;;;;;4955238;28;213841;-70
2023/07/08 03:56:28;;;;;;;11.30;5.78;;;15.50;99.90;;;;;;4980330;28;20062;-71
2023/07/08 03:58:54;;;;;;;12.95;5.95;;;15.60;99.90;;;;;;4955785;28;211928;-70
2023/07/08 04:01:23;;;;;;;11.10;5.53;;;15.60;99.90;;;;;;4983892;28;20073;-72
2023/07/08 04:03:52;;;;;;;11.88;5.72;;;15.60;99.90;;;;;;4946769;28;203918;-72
2023/07/08 04:06:19;;;;;;;13.18;5.75;;;15.60;99.90;;;;;;4985348;28;20061;-71
2023/07/08 04:08:46;;;;;;;13.23;6.20;;;15.60;99.90;;;;;;4933592;28;212559;-73
2023/07/08 04:11:14;;;;;;;11.85;5.78;;;15.70;99.90;;;;;;4997239;28;20060;-71
2023/07/08 04:13:40;;;;;;;10.15;5.50;;;15.80;99.90;;;;;;4946981;28;208533;-71
2023/07/08 04:16:07;;;;;;;11.80;5.80;;;15.80;99.90;;;;;;5001150;28;20056;-70
2023/07/08 04:18:33;;;;;;;12.00;5.40;;;15.80;99.90;;;;;;4952889;28;212374;-70
2023/07/08 04:20:59;;;;;;;10.70;5.53;;;15.90;99.90;;;;;;4992041;28;20450;-69
2023/07/08 04:23:25;;;;;;;11.15;5.38;;;15.90;99.90;;;;;;4926161;28;210365;-69
2023/07/08 04:25:55;;;;;;;12.15;5.53;;;16.00;99.90;;;;;;4979704;28;20062;-71
2023/07/08 04:28:21;;;;;;;12.50;5.53;;;16.00;99.90;;;;;;4959191;28;208550;-69
2023/07/08 04:30:48;;;;;;;10.50;5.45;;;16.00;99.90;;;;;;4995849;28;20046;-69
2023/07/08 04:33:15;;;;;;;13.55;6.03;;;16.10;99.90;;;;;;4954286;28;213163;-69
2023/07/08 04:35:43;;;;;;;14.00;5.85;;;16.20;99.90;;;;;;5008677;28;20065;-68
2023/07/08 04:38:21;;;;;;;12.07;5.57;;;16.20;99.90;;;;;;4960918;28;215659;-70
2023/07/08 04:40:48;;;;;;;12.75;5.75;;;16.30;99.90;;;;;;5015849;28;20050;-70
2023/07/08 04:43:15;;;;;;;11.95;5.60;;;16.30;99.90;;;;;;4951120;28;210269;-73
2023/07/08 04:45:44;;;;;;;10.55;5.13;;;16.40;99.90;;;;;;4987640;28;20508;-70
2023/07/08 04:48:18;;;;;;;13.65;5.70;;;16.50;99.90;;;;;;4945033;28;215666;-74
2023/07/08 04:50:46;;;;;;;13.88;5.68;;;16.50;99.90;;;;;;4996958;28;20054;-70
2023/07/08 04:53:13;;;;;;;11.27;5.25;;;16.60;99.90;;;;;;4939802;28;210060;-72
2023/07/08 04:55:43;;;;;;;15.27;5.40;;;16.60;99.90;;;;;;4986258;28;20055;-71
2023/07/08 04:58:09;;;;;;;11.68;5.43;;;16.60;99.90;;;;;;4930046;28;204881;-70
2023/07/08 05:00:35;;;;;;;13.25;5.55;;;16.80;99.90;;;;;;4996915;28;20049;-70
2023/07/08 05:03:01;;;;;;;10.65;5.55;;;16.80;99.90;;;;;;4940938;28;207201;-73
2023/07/08 05:05:28;;;;;;;11.73;5.68;;;16.90;99.90;;;;;;4987065;28;20054;-70
2023/07/08 05:07:54;;;;;;;12.18;5.47;;;16.90;99.90;;;;;;4930812;28;210502;-72
2023/07/08 05:10:20;;;;;;;13.43;5.50;;;17.00;99.90;;;;;;4983711;28;20061;-69
2023/07/08 05:12:47;;;;;;;11.15;5.35;;;17.10;99.90;;;;;;4942011;28;214573;-71
2023/07/08 05:15:15;;;;;;;15.48;5.45;;;17.20;99.90;;;;;;4990495;28;20054;-71
2023/07/08 05:17:41;;;;;;;11.90;5.03;;;17.30;99.90;;;;;;4927148;28;227265;-70
2023/07/08 05:20:11;;;;;;;10.63;5.10;;;17.30;99.90;;;;;;4998196;28;20046;-71
2023/07/08 05:22:37;;;;;;;11.15;5.10;;;17.40;99.90;;;;;;4926434;28;242516;-69
2023/07/08 05:25:05;;;;;;;12.05;5.05;;;17.50;99.90;;;;;;4980194;28;20055;-70
2023/07/08 05:27:33;;;;;;;11.18;4.70;;;17.60;99.90;;;;;;4930013;28;206646;-70
2023/07/08 05:30:01;;;;;;;16.00;5.22;;;17.70;99.90;;;;;;4977133;28;20061;-71
2023/07/08 05:32:27;;;;;;;10.55;4.80;;;17.80;99.90;;;;;;4930113;28;210812;-70
2023/07/08 05:34:53;;;;;;;14.20;5.00;;;17.90;99.90;;;;;;4980453;28;20464;-70
2023/07/08 05:37:23;;;;;;;11.77;4.82;;;18.00;99.90;;;;;;4928127;28;213523;-69
2023/07/08 05:39:49;;;;;;;16.63;4.72;;;18.10;99.90;;;;;;4980485;28;20054;-71
2023/07/08 05:42:15;;;;;;;11.83;4.80;;;18.30;99.90;;;;;;4945303;28;213843;-69
2023/07/08 05:44:42;;;;;;;12.63;4.40;;;18.40;99.90;;;;;;5007248;28;20523;-70
2023/07/08 05:47:08;;;;;;;11.13;4.63;;;18.50;99.90;;;;;;4938755;28;213248;-69
2023/07/08 05:49:34;;;;;;;9.40;4.18;;;18.70;99.90;;;;;;5027979;28;20050;-70
2023/07/08 05:52:05;;;;;;;11.75;4.32;;;18.90;99.90;;;;;;4958550;28;213056;-69
2023/07/08 05:54:31;;;;;;;10.25;4.40;;;19.00;99.90;;;;;;4984096;28;20050;-73
2023/07/08 05:56:57;;;;;;;11.57;4.50;;;19.20;99.90;;;;;;4983152;28;212334;-70
2023/07/08 05:59:24;;;;;;;13.52;4.18;;;19.40;99.90;;;;;;4954416;28;275603;-71
2023/07/08 06:01:50;;;;;;;9.88;4.18;;;19.70;99.90;;;;;;5003880;28;20507;-72
2023/07/08 06:04:16;;;;;;;8.90;3.95;;;19.80;99.90;;;;;;4974212;28;208183;-73
2023/07/08 06:06:42;;;;;;;9.00;3.90;;;20.10;99.90;;;;;;5004955;28;20054;-72
2023/07/08 06:09:08;;;;;;;11.90;4.05;;;20.30;99.90;;;;;;4979665;28;209914;-71
2023/07/08 06:11:34;;;;;;;9.65;3.85;;;20.50;99.90;;;;;;4983899;28;20062;-71
2023/07/08 06:14:00;;;;;;;9.65;3.75;;;20.80;99.90;;;;;;4941441;28;212021;-71
2023/07/08 06:16:28;;;;;;;11.32;3.85;;;20.90;99.90;;;;;;4985016;28;20530;-71
2023/07/08 06:18:56;;;;;;;13.77;4.00;;;21.10;99.90;;;;;;4923680;28;221405;-71
2023/07/08 06:21:23;;;;;;;11.27;3.67;;;21.30;99.90;;;;;;4983690;28;20045;-72
2023/07/08 06:23:49;;;;;;;8.93;3.58;;;21.40;99.90;;;;;;4937673;28;209731;-70
2023/07/08 06:26:15;;;;;;;10.77;3.85;;;21.50;98.90;;;;;;4987469;28;20050;-71
2023/07/08 06:28:41;;;;;;;10.98;3.60;;;21.60;98.60;;;;;;4942864;28;207329;-72
2023/07/08 06:31:08;;;;;;;9.40;3.45;;;21.60;98.90;;;;;;4985225;28;20407;-71
2023/07/08 06:33:34;;;;;;;10.52;4.10;;;21.90;99.10;;;;;;4926976;28;217849;-74
2023/07/08 06:36:00;;;;;;;10.18;3.72;;;22.20;98.90;;;;;;4983939;28;20054;-71
2023/07/08 06:38:26;;;;;;;12.00;3.83;;;22.30;97.90;;;;;;4948103;28;226337;-70
2023/07/08 06:40:52;;;;;;;9.75;3.75;;;22.50;98.10;;;;;;4986601;28;20050;-70
2023/07/08 06:43:18;;;;;;;9.88;3.38;;;22.50;98.10;;;;;;4950950;28;213084;-70
2023/07/08 06:45:44;;;;;;;9.80;3.55;;;22.70;98.00;;;;;;4995919;28;20054;-71
2023/07/08 06:48:10;;;;;;;8.32;3.53;;;22.90;97.60;;;;;;4949313;28;218296;-70
2023/07/08 06:50:37;;;;;;;8.98;3.63;;;23.10;97.40;;;;;;4995721;28;20065;-69
2023/07/08 06:53:04;;;;;;;9.70;3.10;;;23.20;97.10;;;;;;4944729;28;213437;-70
2023/07/08 06:55:31;;;;;;;9.60;3.40;;;23.30;97.00;;;;;;5002236;28;20053;-70
2023/07/08 06:57:57;;;;;;;8.65;3.30;;;23.50;96.90;;;;;;4927884;28;213570;-72
2023/07/08 07:00:23;;;;;;;9.68;3.30;;;23.60;96.90;;;;;;4993321;28;20054;-72
2023/07/08 07:02:49;;;;;;;10.77;3.45;;;23.80;96.60;;;;;;4952442;28;229563;-71
2023/07/08 07:05:15;;;;;;;11.05;3.42;;;24.10;96.30;;;;;;4986406;28;20054;-72
2023/07/08 07:07:42;;;;;;;8.75;2.90;;;24.10;95.20;;;;;;4936428;28;217933;-70
2023/07/08 07:10:08;;;;;;;9.07;3.50;;;24.30;95.90;;;;;;5004654;28;20066;-70
2023/07/08 07:12:35;;;;;;;13.77;3.42;;;24.40;95.70;;;;;;4943901;28;231538;-73
2023/07/08 07:15:03;;;;;;;8.70;3.42;;;24.70;95.20;;;;;;4998843;28;20054;-71
2023/07/08 07:17:29;;;;;;;9.38;3.20;;;24.90;95.30;;;;;;4938842;28;212278;-73
2023/07/08 07:19:55;;;;;;;8.65;3.05;;;25.20;94.50;;;;;;5000477;28;20054;-69
2023/07/08 07:22:21;;;;;;;9.32;3.38;;;25.70;94.80;;;;;;4930253;28;216933;-70
2023/07/08 07:24:48;;;;;;;8.25;2.97;;;25.90;94.40;;;;;;5010594;28;20631;-72
2023/07/08 07:27:15;;;;;;;8.65;3.15;;;26.00;94.40;;;;;;4938053;28;207754;-70
2023/07/08 07:29:46;;;;;;;11.52;3.17;;;26.00;94.10;;;;;;5004650;28;20053;-70
2023/07/08 07:32:13;;;;;;;10.15;2.95;;;26.30;93.30;;;;;;4931840;28;210798;-70
2023/07/08 07:34:40;;;;;;;9.20;3.08;;;26.40;93.60;;;;;;4995060;28;20043;-71
2023/07/08 07:37:17;;;;;;;12.05;3.00;;;26.50;92.90;;;;;;4929766;28;212334;-71
2023/07/08 07:39:43;;;;;;;9.73;3.00;;;26.50;93.30;;;;;;5006734;28;20425;-70
2023/07/08 07:42:10;;;;;;;9.47;3.07;;;26.90;93.10;;;;;;4935134;28;212719;-73
2023/07/08 07:44:39;;;;;;;9.32;2.80;;;27.00;92.50;;;;;;5025040;28;20061;-72
2023/07/08 07:47:07;;;;;;;8.63;2.90;;;27.20;92.40;;;;;;4941349;28;216310;-74
2023/07/08 07:49:33;;;;;;;10.70;3.15;;;27.30;91.70;;;;;;5014676;28;20507;-72
2023/07/08 07:51:59;;;;;;;8.85;2.88;;;27.50;92.30;;;;;;4963765;28;212926;-66
2023/07/08 07:54:26;;;;;;;9.55;2.80;;;27.80;92.20;;;;;;5008552;28;20060;-71
2023/07/08 07:56:52;;;;;;;8.30;2.80;;;28.20;91.70;;;;;;4995053;28;20167;-70
2023/07/08 07:59:19;;;;;;;8.10;2.63;;;28.50;91.40;;;;;;4922818;28;211165;-73
2023/07/08 08:01:45;;;;;;;8.63;2.72;;;28.60;91.10;;;;;;4979037;28;20062;-73
2023/07/08 08:04:11;;;;;;;9.05;2.58;;;28.50;91.10;;;;;;4894515;28;206951;-70
2023/07/08 08:06:38;;;;;;;9.45;2.90;;;28.50;90.50;;;;;;4983725;28;20271;-73
2023/07/08 08:09:04;;;;;;;8.88;2.70;;;28.60;90.80;;;;;;4942847;28;216189;-69
2023/07/08 08:11:32;;;;;;;8.68;2.95;;;28.90;90.10;;;;;;5002663;28;20050;-69
2023/07/08 08:14:00;;;;;;;9.38;2.90;;;29.20;90.40;;;;;;4944142;28;218154;-70
2023/07/08 08:16:26;;;;;;;10.23;2.92;;;29.50;90.50;;;;;;4979214;28;20057;-73
2023/07/08 08:18:52;;;;;;;10.52;2.60;;;29.70;90.00;;;;;;4943599;28;210121;-70
2023/07/08 08:21:19;;;;;;;7.32;2.70;;;29.80;89.80;;;;;;4985378;28;20062;-70
2023/07/08 08:23:45;;;;;;;7.97;3.00;;;29.80;87.40;;;;;;4943211;28;211394;-70
2023/07/08 08:26:11;;;;;;;8.20;2.53;;;29.90;87.30;;;;;;4987519;28;20061;-70
2023/07/08 08:28:37;;;;;;;9.38;2.92;;;29.80;86.90;;;;;;4937194;28;210364;-69
2023/07/08 08:31:03;;;;;;;10.52;2.72;;;30.00;88.30;;;;;;4981427;28;20054;-70
2023/07/08 08:33:29;;;;;;;12.23;2.90;;;30.30;87.70;;;;;;4949866;28;213707;-73
2023/07/08 08:35:55;;;;;;;10.38;2.65;;;30.40;87.60;;;;;;5000610;28;20053;-70
2023/07/08 08:38:21;;;;;;;10.85;2.72;;;30.70;87.40;;;;;;4948942;28;221800;-70
2023/07/08 08:40:48;;;;;;;10.40;3.10;;;30.90;87.20;;;;;;5004236;28;20053;-69
2023/07/08 08:43:21;;;;;;;11.02;3.15;;;30.60;86.60;;;;;;4967952;28;218124;-69
2023/07/08 08:46:03;;;;;;;9.15;2.75;;;30.80;85.30;;;;;;4992693;28;20130;-68
2023/07/08 08:48:35;;;;;;;10.93;2.95;;;30.90;85.80;;;;;;4932265;28;212828;-68
2023/07/08 08:51:16;;;;;;;10.02;3.25;;;31.30;86.00;;;;;;4986103;28;20057;-69
2023/07/08 08:53:43;;;;;;;8.32;2.75;;;31.60;84.60;;;;;;4946696;28;208595;-67
2023/07/08 08:56:22;;;;;;;8.40;2.83;;;31.90;85.30;;;;;;4982991;28;20408;-67
2023/07/08 08:59:03;;;;;;;9.37;2.77;;;32.30;83.90;;;;;;4934937;28;226664;-68
2023/07/08 09:01:29;;;;;;;8.10;2.88;;;32.40;83.70;;;;;;4981084;28;20062;-68
2023/07/08 09:04:03;;;;;;;9.73;2.70;;;32.40;83.80;;;;;;4947894;28;212913;-69
2023/07/08 09:06:34;;;;;;;8.88;2.60;;;32.50;83.40;;;;;;4981716;28;20186;-68
2023/07/08 09:09:16;;;;;;;9.13;2.60;;;32.90;83.50;;;;;;4945165;28;229639;-69
2023/07/08 09:11:50;;;;;;;9.85;2.72;;;33.20;82.30;;;;;;4980667;28;20129;-68
2023/07/08 09:14:25;;;;;;;9.63;2.85;;;33.70;82.00;;;;;;4934130;28;212248;-69
2023/07/08 09:17:13;;;;;;;8.75;2.85;;;33.60;79.60;;;;;;4980421;28;20058;-69
2023/07/08 09:20:11;;;;;;;13.50;3.10;;;33.50;80.50;;;;;;4915322;28;174884;-69
2023/07/08 09:22:40;;;;;;;10.25;2.78;;;33.10;79.90;;;;;;4932408;28;206331;-69
2023/07/08 09:25:21;;;;;;;8.88;2.85;;;33.30;80.00;;;;;;4985703;28;20058;-68
2023/07/08 09:27:48;;;;;;;8.85;2.88;;;33.40;80.50;;;;;;4928116;28;211986;-68
2023/07/08 09:30:16;;;;;;;11.77;2.75;;;33.80;79.40;;;;;;4998679;28;20054;-69
2023/07/08 09:32:43;;;;;;;8.52;2.60;;;34.20;80.10;;;;;;4951858;28;211317;-70
2023/07/08 09:35:22;;;;;;;8.80;2.60;;;34.60;79.30;;;;;;4995787;28;20431;-68
2023/07/08 09:37:49;;;;;;;10.75;2.88;;;35.00;78.30;;;;;;4944050;28;221557;-69
2023/07/08 09:40:22;;;;;;;8.10;2.83;;;35.00;77.30;;;;;;4992643;28;20065;-69
2023/07/08 09:42:54;;;;;;;7.82;2.78;;;35.30;78.40;;;;;;4950768;28;209221;-69
2023/07/08 09:45:24;;;;;;;9.60;2.90;;;35.00;77.10;;;;;;5004865;28;20061;-68
2023/07/08 09:47:56;;;;;;;7.75;2.67;;;35.20;76.10;;;;;;4949805;28;215803;-69
2023/07/08 09:50:28;;;;;;;8.50;2.80;;;35.20;76.40;;;;;;5008987;28;20061;-69
2023/07/08 09:53:06;;;;;;;8.60;2.78;;;35.40;76.70;;;;;;4943548;28;208249;-70
2023/07/08 09:55:33;;;;;;;11.65;3.08;;;35.50;76.00;;;;;;4991546;28;20424;-70
2023/07/08 09:58:02;;;;;;;7.97;2.90;;;35.90;75.80;;;;;;4920347;28;236998;-69
2023/07/08 10:00:39;;;;;;;8.48;2.72;;;35.80;74.90;;;;;;4991326;28;20076;-68
2023/07/08 10:03:20;;;;;;;10.23;2.78;;;35.80;74.20;;;;;;4935516;28;243499;-69
2023/07/08 10:05:49;;;;;;;8.13;2.60;;;35.70;75.00;;;;;;4982701;28;20057;-70
2023/07/08 10:08:21;;;;;;;7.68;2.70;;;35.90;74.30;;;;;;4947423;28;207182;-71
2023/07/08 10:11:12;;;;;;;8.20;2.90;;;36.00;74.70;;;;;;5000794;28;20057;-71
2023/07/08 10:13:48;;;;;;;9.65;2.80;;;36.40;74.40;;;;;;4926394;28;214600;-72
2023/07/08 10:16:16;;;;;;;8.70;2.60;;;36.80;74.00;;;;;;4975752;28;20453;-72
2023/07/08 10:18:43;;;;;;;8.33;2.60;;;37.00;74.00;;;;;;4939854;28;207820;-71
2023/07/08 10:21:20;;;;;;;9.85;2.88;;;36.50;73.60;;;;;;4984335;28;20506;-71
2023/07/08 10:24:18;;;;;;;12.88;3.17;;;36.90;71.40;;;;;;4946032;28;209749;-72
2023/07/08 10:26:49;;;;;;;9.80;2.80;;;37.20;72.30;;;;;;4987970;28;20069;-72
2023/07/08 10:29:30;;;;;;;9.25;2.70;;;37.30;72.60;;;;;;4944346;28;207818;-74
2023/07/08 10:32:18;;;;;;;9.77;2.83;;;37.30;72.60;;;;;;4992263;28;20053;-71
2023/07/08 10:35:08;;;;;;;10.30;2.60;;;37.50;70.90;;;;;;4925108;28;20057;-72
2023/07/08 10:37:46;;;;;;;7.80;2.67;;;37.60;71.80;;;;;;4929687;28;216815;-71
2023/07/08 10:40:38;;;;;;;7.20;2.55;;;37.50;70.70;;;;;;4993216;28;20046;-72
2023/07/08 10:43:28;;;;;;;9.32;2.72;;;37.60;71.30;;;;;;4926666;28;211915;-72
2023/07/08 10:46:03;;;;;;;9.98;3.25;;;37.80;70.60;;;;;;4985812;28;20057;-71
2023/07/08 10:48:56;;;;;;;12.50;2.85;;;37.70;69.90;;;;;;4944234;28;210507;-71
2023/07/08 10:52:06;;;;;;;7.05;2.72;;;37.50;68.90;;;;;;5007100;28;20058;-69
2023/07/08 10:55:10;;;;;;;9.07;2.60;;;37.50;68.40;;;;;;4947908;28;210278;-71
2023/07/08 10:57:51;;;;;;;8.68;2.63;;;37.20;67.60;;;;;;4922844;28;210589;-73
2023/07/08 11:00:27;;;;;;;12.25;2.70;;;37.20;70.90;;;;;;4982156;28;20038;-72
2023/07/08 11:03:17;;;;;;;7.22;2.65;;;37.50;69.90;;;;;;4940591;28;209147;-72
2023/07/08 11:05:46;;;;;;;8.50;2.90;;;37.80;68.10;;;;;;4995862;28;20419;-71
2023/07/08 11:08:31;;;;;;;9.75;2.70;;;37.40;68.40;;;;;;4942420;28;208876;-72
2023/07/08 11:11:14;;;;;;;9.68;2.83;;;37.30;68.70;;;;;;4988028;28;20050;-72
2023/07/08 11:13:49;;;;;;;8.15;3.08;;;37.60;69.30;;;;;;4956392;28;209051;-72
2023/07/08 11:16:15;;;;;;;8.13;2.95;;;37.80;68.80;;;;;;4998585;28;20065;-72
2023/07/08 11:19:02;;;;;;;9.13;2.75;;;37.50;67.60;;;;;;4940280;28;215109;-72
2023/07/08 11:21:40;;;;;;;8.85;2.97;;;37.30;67.60;;;;;;4981713;28;20054;-73
2023/07/08 11:24:21;;;;;;;6.97;2.50;;;37.30;67.60;;;;;;4947345;28;214697;-71
2023/07/08 11:26:58;;;;;;;8.05;2.90;;;37.50;68.20;;;;;;4984845;28;20046;-73
2023/07/08 11:29:39;;;;;;;7.35;2.75;;;37.60;68.10;;;;;;4944045;28;207705;-72
2023/07/08 11:32:11;;;;;;;9.82;2.67;;;37.90;68.10;;;;;;4961673;28;212870;-71
2023/07/08 11:34:41;;;;;;;9.23;3.03;;;38.00;68.30;;;;;;4961611;28;20057;-71
2023/07/08 11:37:13;;;;;;;9.55;2.90;;;37.80;67.30;;;;;;4929181;28;209024;-70
2023/07/08 11:39:43;;;;;;;12.07;3.05;;;37.90;67.50;;;;;;4963864;28;20054;-70
2023/07/08 11:42:16;;;;;;;9.60;2.80;;;38.20;66.10;;;;;;4938713;28;215765;-69
2023/07/08 11:44:52;;;;;;;10.80;2.78;;;38.30;66.50;;;;;;4995387;28;20523;-70
2023/07/08 11:47:24;;;;;;;10.02;3.30;;;38.40;65.70;;;;;;4944044;28;212500;-69
2023/07/08 11:49:52;;;;;;;8.00;2.72;;;38.50;65.60;;;;;;4991456;28;20069;-70
2023/07/08 11:52:20;;;;;;;9.33;3.10;;;38.40;66.00;;;;;;4931455;28;205954;-70
2023/07/08 11:54:48;;;;;;;8.60;2.72;;;38.40;65.40;;;;;;5023335;28;20058;-69
2023/07/08 11:57:23;;;;;;;10.63;2.73;;;38.70;65.00;;;;;;4909932;28;223468;-70
2023/07/08 12:00:12;;;;;;;10.27;2.90;;;39.00;65.20;;;;;;5023938;28;20057;-69
2023/07/08 12:02:57;;;;;;;8.98;2.88;;;39.40;64.00;;;;;;4956571;28;210994;-70
2023/07/08 12:05:36;;;;;;;8.38;2.72;;;39.70;62.50;;;;;;4999457;28;20065;-69
2023/07/08 12:08:11;;;;;;;10.05;2.83;;;39.60;61.00;;;;;;4954454;28;215627;-70
2023/07/08 12:10:51;;;;;;;9.73;2.97;;;39.70;64.40;;;;;;4991468;28;20062;-71
2023/07/08 12:13:21;;;;;;;8.60;2.78;;;40.00;62.70;;;;;;4964095;28;214884;-69
2023/07/08 12:15:47;;;;;;;7.93;2.80;;;39.70;61.90;;;;;;5000653;28;20061;-70
2023/07/08 12:18:20;;;;;;;11.07;2.90;;;39.50;61.10;;;;;;4949463;28;214243;-70
2023/07/08 12:20:50;;;;;;;7.07;2.78;;;39.60;62.40;;;;;;4997789;28;20057;-70
2023/07/08 12:23:20;;;;;;;9.13;3.40;;;40.00;61.30;;;;;;4965065;28;208992;-69
2023/07/08 12:25:47;;;;;;;9.02;2.78;;;40.30;60.20;;;;;;5007923;28;20080;-70
2023/07/08 12:28:14;;;;;;;10.15;3.03;;;40.20;61.60;;;;;;4964788;28;168522;-71
2023/07/08 12:30:43;;;;;;;7.97;2.85;;;40.00;61.30;;;;;;5007178;28;20065;-70
2023/07/08 12:33:13;;;;;;;9.20;3.10;;;39.90;60.60;;;;;;4963708;28;142810;-70
2023/07/08 12:35:41;;;;;;;8.18;2.70;;;39.80;59.40;;;;;;5013489;28;20057;-72
2023/07/08 12:38:28;;;;;;;10.27;3.13;;;39.20;60.20;;;;;;4947938;28;208744;-73
2023/07/08 12:40:58;;;;;;;9.82;3.28;;;39.40;60.30;;;;;;4983150;28;20050;-73
2023/07/08 12:43:24;;;;;;;;;;;39.90;60.60;;;;;;4940709;28;212649;-73
2023/07/08 12:45:50;;;;;;;10.25;3.10;;;40.40;58.20;;;;;;4992845;28;19926;-72
2023/07/08 12:48:16;;;;;;;9.02;3.17;;;39.90;59.60;;;;;;4949348;28;212146;-73
2023/07/08 12:50:42;;;;;;;8.45;2.47;;;39.60;60.30;;;;;;5000406;28;20069;-72